Time;durP1;ratioP1;P1;durP2;ratioP2;P2;SDS_P1;SDS_P2;PMS_P1;PMS_P2;Temp;Humidity;BMP_temperature;BMP_pressure;BME280_temperature;BME280_humidity;BME280_pressure;Samples;Min_cycle;Max_cycle;Signal;HPM_P1;HPM_P2
2022/09/25 00:01:36;;;;;;;4.88;3.45;;;18.50;92.60;;;;;;6220068;23;20004;-81
2022/09/25 00:04:02;;;;;;;6.05;4.47;;;18.50;92.60;;;;;;6246374;23;20046;-80
2022/09/25 00:06:29;;;;;;;5.03;4.22;;;18.50;92.60;;;;;;6218825;23;20004;-81
2022/09/25 00:08:56;;;;;;;7.43;5.60;;;18.40;92.60;;;;;;6246444;23;20422;-80
2022/09/25 00:11:26;;;;;;;5.55;4.95;;;18.50;92.60;;;;;;6246496;23;20300;-81
2022/09/25 00:13:53;;;;;;;6.80;5.07;;;18.50;92.60;;;;;;6246269;23;20004;-80
2022/09/25 00:16:22;;;;;;;6.95;5.18;;;18.50;92.60;;;;;;6245951;23;20387;-80
2022/09/25 00:21:34;;;;;;;7.55;5.32;;;18.40;92.60;;;;;;6246432;23;20054;-79
2022/09/25 00:24:02;;;;;;;8.07;5.32;;;18.30;92.70;;;;;;6246641;23;20003;-79
2022/09/25 00:26:30;;;;;;;9.00;5.80;;;18.30;92.90;;;;;;6246262;23;20003;-79
2022/09/25 00:28:56;;;;;;;8.02;5.18;;;18.30;92.80;;;;;;6245937;23;20001;-79
2022/09/25 00:31:25;;;;;;;5.72;4.72;;;18.20;92.80;;;;;;6246252;23;19997;-80
2022/09/25 00:33:51;;;;;;;7.57;5.13;;;18.20;92.90;;;;;;6246004;23;20007;-83
2022/09/25 00:36:17;;;;;;;5.90;4.47;;;18.30;92.90;;;;;;6246198;23;20007;-83
2022/09/25 00:38:45;;;;;;;7.72;4.80;;;18.30;93.00;;;;;;6245472;23;20004;-81
2022/09/25 00:41:11;;;;;;;6.35;4.45;;;18.30;93.00;;;;;;6245263;23;20054;-82
2022/09/25 00:43:47;;;;;;;6.65;5.22;;;18.30;93.00;;;;;;6245265;23;20008;-81
2022/09/25 00:46:34;;;;;;;6.43;4.88;;;18.30;93.00;;;;;;6245800;23;20024;-82
2022/09/25 00:49:04;;;;;;;7.00;5.07;;;18.30;93.00;;;;;;6245481;23;20027;-82
2022/09/25 00:51:48;;;;;;;5.25;4.75;;;18.30;93.00;;;;;;6245343;23;20014;-82
2022/09/25 00:54:44;;;;;;;6.30;5.00;;;18.30;92.90;;;;;;6221812;23;20004;-83
2022/09/25 00:57:14;;;;;;;5.18;4.35;;;18.30;92.90;;;;;;6246116;23;20338;-82
2022/09/25 00:59:43;;;;;;;6.03;4.15;;;18.30;92.90;;;;;;6246260;23;20308;-82
2022/09/25 01:02:14;;;;;;;4.57;3.95;;;18.30;93.10;;;;;;6246024;23;20042;-79
2022/09/25 01:04:45;;;;;;;5.32;3.38;;;18.30;93.00;;;;;;6245387;23;20337;-79
2022/09/25 01:07:11;;;;;;;6.47;4.57;;;18.30;93.30;;;;;;6245493;23;20311;-80
2022/09/25 01:09:37;;;;;;;7.30;4.97;;;18.30;93.20;;;;;;6246112;23;20091;-79
2022/09/25 01:12:03;;;;;;;6.32;4.40;;;18.30;93.20;;;;;;6217427;23;20005;-78
2022/09/25 01:14:32;;;;;;;4.30;3.78;;;18.30;93.20;;;;;;6243308;23;20000;-79
2022/09/25 01:17:06;;;;;;;6.68;4.57;;;18.30;93.40;;;;;;6244952;23;20095;-79
2022/09/25 01:19:50;;;;;;;7.93;6.13;;;18.20;93.50;;;;;;6218331;23;20012;-79
2022/09/25 01:23:05;;;;;;;7.78;6.05;;;18.10;93.80;;;;;;6245665;23;20069;-79
2022/09/25 01:25:36;;;;;;;6.38;5.43;;;17.90;94.10;;;;;;6123362;23;20081;-79
2022/09/25 01:28:23;;;;;;;8.00;6.75;;;17.70;94.60;;;;;;6121804;23;20013;-78
2022/09/25 01:30:56;;;;;;;5.57;4.40;;;17.70;94.70;;;;;;6201980;23;20066;-81
2022/09/25 01:33:30;;;;;;;7.95;6.38;;;17.60;94.70;;;;;;6245236;23;20004;-81
2022/09/25 01:36:24;;;;;;;10.77;8.13;;;17.50;95.40;;;;;;6244869;23;20103;-81
2022/09/25 01:38:56;;;;;;;10.40;7.47;;;17.40;95.80;;;;;;6245109;23;20000;-81
2022/09/25 01:41:28;;;;;;;10.25;7.15;;;17.30;96.00;;;;;;6245308;23;20011;-82
2022/09/25 01:44:01;;;;;;;7.53;5.97;;;17.40;95.80;;;;;;6244827;23;20005;-80
2022/09/25 01:46:30;;;;;;;6.07;4.97;;;17.40;95.80;;;;;;6244362;23;20011;-81
2022/09/25 01:49:07;;;;;;;6.78;5.97;;;17.40;95.70;;;;;;6245427;23;20011;-83
2022/09/25 01:51:40;;;;;;;10.40;8.55;;;17.40;96.00;;;;;;6244715;23;20000;-83
2022/09/25 01:54:15;;;;;;;6.32;5.30;;;17.30;96.20;;;;;;6245451;23;20004;-82
2022/09/25 01:56:47;;;;;;;9.77;6.28;;;17.20;96.60;;;;;;6245097;23;20001;-83
2022/09/25 01:59:16;;;;;;;9.25;7.97;;;17.20;97.00;;;;;;6218571;23;20032;-82
2022/09/25 02:01:44;;;;;;;9.40;7.38;;;17.00;97.00;;;;;;6245359;23;20058;-81
2022/09/25 02:04:22;;;;;;;8.73;7.63;;;16.90;97.50;;;;;;6217729;23;20512;-81
2022/09/25 02:06:49;;;;;;;6.85;6.15;;;16.80;98.00;;;;;;6244652;23;20070;-81
2022/09/25 02:09:52;;;;;;;8.13;7.07;;;16.80;98.50;;;;;;6244772;23;20027;-81
2022/09/25 02:12:25;;;;;;;5.50;5.00;;;16.80;98.40;;;;;;6219477;23;20008;-81
2022/09/25 02:14:55;;;;;;;7.28;6.57;;;16.80;99.00;;;;;;6245061;23;20083;-80
2022/09/25 02:22:54;;;;;;;4.93;4.03;;;16.80;99.30;;;;;;6245387;23;20058;-80
2022/09/25 02:25:30;;;;;;;4.10;3.70;;;16.90;99.30;;;;;;6244990;23;20374;-82
2022/09/25 02:27:56;;;;;;;4.88;3.22;;;16.90;99.40;;;;;;6244262;23;20026;-82
2022/09/25 02:30:21;;;;;;;3.13;2.72;;;17.00;99.50;;;;;;6245147;23;20459;-81
2022/09/25 02:32:47;;;;;;;2.28;2.08;;;17.00;99.30;;;;;;6245409;23;20004;-82
2022/09/25 02:35:13;;;;;;;2.85;2.58;;;17.00;99.20;;;;;;6244842;23;20427;-81
2022/09/25 02:37:39;;;;;;;1.70;1.60;;;17.10;99.10;;;;;;6243929;23;20008;-81
2022/09/25 02:40:05;;;;;;;2.65;2.35;;;17.20;98.90;;;;;;6217383;23;20015;-81
2022/09/25 02:42:33;;;;;;;2.28;1.90;;;17.20;99.10;;;;;;6244890;23;20024;-80
2022/09/25 02:45:11;;;;;;;3.55;2.20;;;17.10;99.30;;;;;;6244586;23;20004;-79
2022/09/25 02:47:55;;;;;;;2.10;1.83;;;17.00;99.10;;;;;;6244425;23;20012;-79
2022/09/25 02:50:55;;;;;;;2.30;2.10;;;17.10;99.40;;;;;;6244990;23;19996;-79
2022/09/25 02:53:44;;;;;;;1.80;1.40;;;17.10;99.40;;;;;;6244990;23;20003;-79
2022/09/25 02:56:30;;;;;;;1.40;1.20;;;17.10;99.60;;;;;;6245016;23;20079;-80
2022/09/25 02:59:01;;;;;;;1.77;1.27;;;17.00;99.60;;;;;;6246603;23;20042;-80
2022/09/25 03:01:30;;;;;;;1.10;0.80;;;17.20;99.30;;;;;;6246880;23;20000;-80
2022/09/25 03:03:59;;;;;;;1.40;1.08;;;17.20;99.00;;;;;;6246664;23;20009;-79
2022/09/25 03:06:26;;;;;;;2.15;1.00;;;17.30;98.80;;;;;;6246816;23;20039;-80
2022/09/25 03:08:55;;;;;;;1.17;0.95;;;17.40;98.60;;;;;;6246410;23;20894;-80
2022/09/25 03:11:22;;;;;;;1.70;1.20;;;17.30;98.60;;;;;;6246117;23;19996;-80
2022/09/25 03:13:55;;;;;;;0.80;0.80;;;17.20;98.60;;;;;;6246117;23;20007;-81
2022/09/25 03:16:44;;;;;;;1.25;1.15;;;17.30;98.90;;;;;;6246720;23;19996;-81
2022/09/25 03:19:11;;;;;;;1.23;0.83;;;17.30;98.40;;;;;;6230716;23;20075;-81
2022/09/25 03:21:37;;;;;;;0.90;0.65;;;17.20;98.80;;;;;;6246528;23;20365;-81
2022/09/25 03:24:03;;;;;;;0.70;0.70;;;17.20;98.80;;;;;;6246398;23;20795;-81
2022/09/25 03:26:29;;;;;;;0.47;0.40;;;17.30;98.70;;;;;;6246479;23;19996;-81
2022/09/25 03:28:55;;;;;;;1.23;0.82;;;17.30;98.50;;;;;;6246836;23;20000;-81
2022/09/25 03:31:21;;;;;;;0.70;0.55;;;17.40;98.40;;;;;;6246417;23;19997;-80
2022/09/25 03:33:47;;;;;;;0.45;0.45;;;17.30;98.70;;;;;;6246284;23;19997;-82
2022/09/25 03:36:19;;;;;;;1.55;0.73;;;17.30;98.60;;;;;;6246570;23;20014;-82
2022/09/25 03:38:48;;;;;;;0.63;0.50;;;17.30;98.10;;;;;;6246441;23;20008;-82
2022/09/25 03:41:15;;;;;;;1.20;0.57;;;17.30;98.50;;;;;;6246265;23;20050;-82
2022/09/25 03:43:42;;;;;;;0.82;0.40;;;17.30;98.30;;;;;;6246123;23;20106;-82
2022/09/25 03:46:12;;;;;;;1.75;0.52;;;17.40;97.90;;;;;;6246281;23;20028;-80
2022/09/25 03:48:38;;;;;;;0.37;0.30;;;17.50;97.50;;;;;;6246427;23;20454;-82
2022/09/25 03:51:05;;;;;;;0.60;0.60;;;17.40;97.70;;;;;;6246122;23;19996;-82
2022/09/25 03:53:32;;;;;;;0.65;0.60;;;17.40;97.50;;;;;;6246302;23;20427;-81
2022/09/25 03:55:59;;;;;;;0.60;0.40;;;17.30;97.90;;;;;;6245816;23;20431;-81
2022/09/25 03:58:25;;;;;;;0.45;0.45;;;17.30;97.90;;;;;;6246578;23;20075;-81
2022/09/25 04:00:51;;;;;;;0.80;0.55;;;17.10;98.10;;;;;;6246415;23;20032;-80
2022/09/25 04:03:17;;;;;;;0.43;0.30;;;17.20;98.20;;;;;;6246503;23;20453;-80
2022/09/25 04:05:42;;;;;;;1.70;0.70;;;17.30;98.00;;;;;;6246345;23;20016;-80
2022/09/25 04:08:09;;;;;;;0.57;0.40;;;17.30;97.80;;;;;;6218362;23;20431;-79
2022/09/25 04:10:37;;;;;;;0.75;0.52;;;17.10;98.40;;;;;;6245774;23;20000;-79
2022/09/25 04:13:11;;;;;;;1.58;0.55;;;17.20;98.20;;;;;;6246371;23;20442;-80
2022/09/25 04:15:40;;;;;;;0.43;0.40;;;17.20;98.20;;;;;;6246051;23;20007;-79
2022/09/25 04:18:06;;;;;;;0.32;0.30;;;17.30;97.90;;;;;;6246033;23;20083;-82
2022/09/25 04:20:32;;;;;;;0.47;0.30;;;17.40;97.60;;;;;;6245680;23;20042;-79
2022/09/25 04:22:57;;;;;;;0.68;0.20;;;17.50;97.40;;;;;;6246115;23;20331;-79
2022/09/25 04:25:24;;;;;;;2.05;0.40;;;17.50;97.10;;;;;;6245591;23;20071;-82
2022/09/25 04:27:59;;;;;;;0.20;0.20;;;17.60;96.90;;;;;;6245990;23;20007;-80
2022/09/25 04:30:27;;;;;;;1.02;0.40;;;17.70;96.70;;;;;;6245123;23;20000;-79
2022/09/25 04:35:38;;;;;;;0.75;0.50;;;17.70;96.30;;;;;;6245705;23;20018;-82
2022/09/25 04:38:04;;;;;;;0.20;0.20;;;17.60;96.40;;;;;;6245861;23;20374;-82
2022/09/25 04:40:30;;;;;;;0.57;0.43;;;17.60;96.30;;;;;;6244587;23;20075;-83
2022/09/25 04:42:58;;;;;;;0.63;0.40;;;17.50;96.30;;;;;;6244155;23;20387;-82
2022/09/25 04:45:25;;;;;;;0.82;0.45;;;17.50;96.50;;;;;;6218517;23;20379;-83
2022/09/25 04:47:55;;;;;;;0.55;0.40;;;17.30;96.70;;;;;;6244667;23;20004;-83
2022/09/25 04:50:21;;;;;;;2.20;0.40;;;17.10;97.10;;;;;;6245628;23;20001;-83
2022/09/25 04:52:48;;;;;;;0.52;0.30;;;17.10;97.30;;;;;;6245142;23;20219;-84
2022/09/25 04:55:15;;;;;;;1.48;0.52;;;17.20;97.20;;;;;;6217746;23;20454;-84
2022/09/25 04:57:41;;;;;;;0.43;0.38;;;17.30;96.90;;;;;;6243561;23;20000;-83
2022/09/25 05:00:08;;;;;;;0.30;0.30;;;17.40;96.80;;;;;;6243715;23;20105;-82
2022/09/25 05:02:33;;;;;;;0.60;0.35;;;17.50;96.50;;;;;;6244207;23;20005;-84
2022/09/25 05:04:59;;;;;;;0.90;0.43;;;17.60;96.30;;;;;;6245096;23;20376;-89
2022/09/25 05:07:25;;;;;;;0.65;0.30;;;17.60;96.10;;;;;;6246213;23;20338;-85
2022/09/25 05:09:50;;;;;;;0.52;0.30;;;17.60;96.00;;;;;;6244683;23;20387;-85
2022/09/25 05:12:16;;;;;;;0.45;0.45;;;17.60;95.90;;;;;;6245423;23;20373;-79
2022/09/25 05:14:42;;;;;;;1.23;0.50;;;17.50;95.90;;;;;;6218317;23;20004;-80
2022/09/25 05:17:10;;;;;;;1.33;0.50;;;17.60;95.80;;;;;;6245423;23;20010;-79
2022/09/25 05:19:36;;;;;;;3.05;0.60;;;17.60;95.80;;;;;;6245114;23;20075;-78
2022/09/25 05:22:02;;;;;;;1.17;0.40;;;17.60;95.70;;;;;;6245456;23;20047;-79
2022/09/25 05:24:28;;;;;;;0.43;0.30;;;17.60;95.60;;;;;;6245611;23;20011;-80
2022/09/25 05:26:53;;;;;;;1.23;0.50;;;17.60;95.60;;;;;;6245579;23;20095;-81
2022/09/25 05:29:21;;;;;;;0.38;0.30;;;17.60;95.60;;;;;;6245774;23;20028;-82
2022/09/25 05:31:48;;;;;;;0.98;0.50;;;17.60;95.50;;;;;;6245535;23;20023;-83
2022/09/25 05:34:14;;;;;;;0.40;0.32;;;17.70;95.60;;;;;;6244616;23;20007;-82
2022/09/25 05:36:40;;;;;;;0.77;0.60;;;17.70;95.50;;;;;;6245064;23;20023;-82
2022/09/25 05:39:09;;;;;;;1.00;0.70;;;17.80;95.40;;;;;;6245291;23;19996;-83
2022/09/25 05:41:35;;;;;;;0.63;0.63;;;17.80;95.30;;;;;;6245935;23;20022;-83
2022/09/25 05:44:08;;;;;;;1.35;0.70;;;17.80;95.20;;;;;;6245110;23;20003;-82
2022/09/25 05:46:34;;;;;;;1.00;0.80;;;17.80;95.20;;;;;;6245734;23;20007;-81
2022/09/25 05:49:00;;;;;;;1.05;0.60;;;17.80;95.10;;;;;;6243688;23;20004;-80
2022/09/25 05:51:26;;;;;;;0.80;0.50;;;17.90;95.10;;;;;;6245327;23;20032;-82
2022/09/25 05:53:55;;;;;;;0.50;0.50;;;17.90;95.00;;;;;;6245263;23;20164;-80
2022/09/25 05:56:23;;;;;;;0.80;0.70;;;17.80;94.60;;;;;;6245482;23;19996;-81
2022/09/25 05:58:50;;;;;;;1.33;0.65;;;17.70;94.60;;;;;;6244801;23;20008;-80
2022/09/25 06:01:15;;;;;;;0.73;0.68;;;17.60;94.80;;;;;;6245542;23;20000;-79
2022/09/25 06:03:41;;;;;;;1.67;0.88;;;17.60;94.80;;;;;;6244211;23;20008;-77
2022/09/25 06:06:07;;;;;;;1.30;0.88;;;17.70;95.10;;;;;;6245508;23;20004;-79
2022/09/25 06:08:34;;;;;;;1.40;0.73;;;17.70;94.80;;;;;;6243415;23;20031;-84
2022/09/25 06:11:03;;;;;;;1.08;0.70;;;17.70;94.80;;;;;;6245915;23;20066;-81
2022/09/25 06:13:33;;;;;;;2.65;0.90;;;17.70;94.70;;;;;;6243170;23;20007;-81
2022/09/25 06:16:00;;;;;;;1.63;0.70;;;17.70;94.70;;;;;;6244225;23;20007;-81
2022/09/25 06:18:26;;;;;;;1.23;0.85;;;17.80;94.70;;;;;;6244612;23;20004;-82
2022/09/25 06:21:02;;;;;;;0.73;0.68;;;17.80;94.80;;;;;;6245387;23;20331;-82
2022/09/25 06:23:28;;;;;;;4.07;1.05;;;17.80;94.70;;;;;;6245009;23;20725;-82
2022/09/25 06:25:54;;;;;;;1.40;0.90;;;17.90;94.70;;;;;;6244770;23;20085;-82
2022/09/25 06:28:19;;;;;;;1.40;1.02;;;17.80;94.50;;;;;;6244377;23;20055;-81
2022/09/25 06:30:46;;;;;;;1.30;1.10;;;17.80;94.40;;;;;;6245652;23;19996;-82
2022/09/25 06:33:13;;;;;;;2.70;1.50;;;17.80;94.50;;;;;;6245980;23;20087;-78
2022/09/25 06:35:46;;;;;;;2.67;1.27;;;17.70;94.60;;;;;;6243689;23;20131;-77
2022/09/25 06:38:14;;;;;;;1.63;0.98;;;17.70;94.60;;;;;;6246950;23;20023;-77
2022/09/25 06:40:41;;;;;;;2.05;0.90;;;17.70;94.60;;;;;;6246398;23;20375;-79
2022/09/25 06:43:10;;;;;;;1.70;1.10;;;17.70;94.60;;;;;;6247191;23;20004;-79
2022/09/25 06:45:38;;;;;;;1.02;0.80;;;17.70;94.60;;;;;;6246824;23;20107;-79
2022/09/25 06:48:07;;;;;;;1.70;0.90;;;17.80;94.70;;;;;;6247275;23;20433;-79
2022/09/25 06:50:42;;;;;;;1.70;1.20;;;17.90;94.60;;;;;;6247328;23;20001;-79
2022/09/25 06:53:09;;;;;;;1.27;0.90;;;17.90;94.50;;;;;;6220448;23;20327;-79
2022/09/25 06:55:36;;;;;;;1.35;0.90;;;17.90;94.30;;;;;;6246759;23;20015;-79
2022/09/25 06:58:03;;;;;;;1.23;0.80;;;17.80;94.20;;;;;;6247418;23;20004;-79
2022/09/25 07:00:29;;;;;;;1.15;0.90;;;17.90;94.30;;;;;;6247116;23;20008;-80
2022/09/25 07:05:43;;;;;;;1.00;0.68;;;17.90;94.30;;;;;;6246127;23;20028;-79
2022/09/25 07:08:14;;;;;;;1.20;1.00;;;18.00;94.50;;;;;;6246501;23;20345;-80
2022/09/25 07:10:47;;;;;;;1.48;0.82;;;18.10;94.30;;;;;;6247594;23;20000;-79
2022/09/25 07:13:12;;;;;;;1.27;1.00;;;18.20;94.40;;;;;;6246739;23;20122;-80
2022/09/25 07:15:38;;;;;;;1.25;0.70;;;18.30;94.30;;;;;;6245967;23;20379;-80
2022/09/25 07:18:04;;;;;;;1.20;0.60;;;18.30;94.10;;;;;;6246994;23;20311;-80
2022/09/25 07:20:31;;;;;;;0.77;0.68;;;18.40;94.00;;;;;;6246812;23;20346;-80
2022/09/25 07:23:03;;;;;;;1.15;0.77;;;18.40;94.00;;;;;;6246917;23;20342;-77
2022/09/25 07:25:30;;;;;;;0.88;0.80;;;18.50;94.00;;;;;;6245369;23;20491;-77
2022/09/25 07:27:57;;;;;;;1.55;0.70;;;18.60;93.80;;;;;;6245520;23;20000;-77
2022/09/25 07:30:26;;;;;;;0.70;0.70;;;18.60;93.60;;;;;;6246001;23;20000;-78
2022/09/25 07:32:52;;;;;;;1.00;0.65;;;18.60;93.40;;;;;;6218734;23;20004;-78
2022/09/25 07:35:18;;;;;;;0.50;0.50;;;18.60;93.10;;;;;;6246940;23;20007;-78
2022/09/25 07:37:43;;;;;;;0.63;0.63;;;18.60;93.00;;;;;;6246819;23;20374;-78
2022/09/25 07:40:13;;;;;;;0.60;0.60;;;18.60;92.90;;;;;;6246685;23;20028;-78
2022/09/25 07:42:39;;;;;;;0.60;0.50;;;18.60;92.90;;;;;;6246005;23;20031;-80
2022/09/25 07:45:06;;;;;;;0.38;0.38;;;18.50;92.90;;;;;;6246846;23;20415;-80
2022/09/25 07:47:32;;;;;;;1.42;0.65;;;18.60;93.00;;;;;;6246668;23;20077;-80
2022/09/25 07:49:58;;;;;;;1.00;0.68;;;18.70;93.10;;;;;;6246580;23;20027;-80
2022/09/25 07:52:24;;;;;;;0.30;0.30;;;18.80;93.10;;;;;;6245670;23;20425;-80
2022/09/25 07:54:49;;;;;;;1.67;0.70;;;19.00;93.10;;;;;;6246415;23;20346;-80
2022/09/25 07:57:19;;;;;;;0.85;0.40;;;19.10;92.90;;;;;;6246684;23;20441;-80
2022/09/25 07:59:46;;;;;;;0.82;0.50;;;19.20;92.80;;;;;;6239499;23;20010;-80
2022/09/25 08:02:12;;;;;;;0.65;0.40;;;19.30;92.50;;;;;;6241805;23;20004;-81
2022/09/25 08:04:38;;;;;;;1.92;0.50;;;19.30;92.30;;;;;;6243744;23;20091;-81
2022/09/25 08:07:03;;;;;;;0.40;0.40;;;19.40;91.60;;;;;;6245124;23;20000;-81
2022/09/25 08:09:29;;;;;;;0.82;0.40;;;19.40;91.80;;;;;;6246330;23;20396;-81
2022/09/25 08:11:55;;;;;;;0.77;0.40;;;19.50;91.80;;;;;;6244706;23;20001;-81
2022/09/25 08:14:21;;;;;;;0.77;0.50;;;19.50;91.70;;;;;;6245878;23;20469;-81
2022/09/25 08:16:48;;;;;;;0.77;0.35;;;19.60;91.80;;;;;;6245600;23;20000;-79
2022/09/25 08:19:16;;;;;;;0.75;0.40;;;19.70;91.70;;;;;;6245657;23;20001;-78
2022/09/25 08:21:42;;;;;;;0.35;0.35;;;19.80;91.70;;;;;;6245621;23;20293;-81
2022/09/25 08:24:09;;;;;;;0.20;0.20;;;20.00;91.00;;;;;;6246061;23;20020;-80
2022/09/25 08:26:35;;;;;;;0.38;0.30;;;20.00;91.20;;;;;;6245838;23;20039;-80
2022/09/25 08:29:02;;;;;;;0.30;0.30;;;20.10;91.20;;;;;;6245970;23;20008;-78
2022/09/25 08:31:28;;;;;;;0.30;0.30;;;20.30;91.20;;;;;;6245554;23;20000;-78
2022/09/25 08:33:54;;;;;;;0.30;0.30;;;20.40;91.00;;;;;;6244013;23;20004;-79
2022/09/25 08:36:20;;;;;;;0.38;0.30;;;20.60;91.00;;;;;;6244914;23;20000;-79
2022/09/25 08:38:46;;;;;;;1.92;0.30;;;20.70;90.30;;;;;;6214857;23;20008;-78
2022/09/25 08:41:42;;;;;;;0.88;0.38;;;20.80;89.60;;;;;;6244031;23;20066;-79
2022/09/25 08:44:26;;;;;;;0.20;0.20;;;20.80;89.70;;;;;;6244764;23;20003;-80
2022/09/25 08:50:00;;;;;;;0.52;0.30;;;21.10;88.60;;;;;;6244177;23;20446;-82
2022/09/25 08:52:26;;;;;;;0.40;0.20;;;21.20;87.60;;;;;;6244349;23;20077;-82
2022/09/25 08:54:53;;;;;;;0.75;0.10;;;21.30;87.70;;;;;;6244434;23;20454;-82
2022/09/25 08:57:36;;;;;;;0.40;0.25;;;21.40;87.50;;;;;;6243925;23;20030;-88
2022/09/25 09:00:08;;;;;;;0.47;0.40;;;21.60;87.30;;;;;;6214443;23;20040;-85
2022/09/25 09:02:41;;;;;;;0.65;0.30;;;21.80;86.90;;;;;;6243308;23;20011;-81
2022/09/25 09:05:17;;;;;;;0.35;0.35;;;21.90;86.90;;;;;;6244744;23;20012;-80
2022/09/25 09:07:48;;;;;;;0.30;0.30;;;22.10;86.80;;;;;;6244734;23;20118;-82
2022/09/25 09:10:43;;;;;;;0.30;0.20;;;22.20;86.10;;;;;;6244255;23;20007;-81
2022/09/25 09:13:52;;;;;;;0.50;0.40;;;22.30;85.20;;;;;;6219131;23;20362;-80
2022/09/25 09:16:25;;;;;;;0.45;0.43;;;22.30;84.60;;;;;;6218210;23;20000;-82
2022/09/25 09:18:52;;;;;;;0.47;0.40;;;22.30;84.00;;;;;;6244956;23;20011;-79
2022/09/25 09:21:35;;;;;;;0.55;0.35;;;22.40;83.90;;;;;;6244885;23;20007;-79
2022/09/25 09:24:06;;;;;;;0.73;0.50;;;22.60;83.60;;;;;;6244275;23;20000;-79
2022/09/25 09:26:53;;;;;;;1.00;0.40;;;22.80;82.90;;;;;;6244757;23;20092;-79
2022/09/25 09:30:10;;;;;;;1.05;0.50;;;22.90;82.30;;;;;;6244077;23;20030;-79
2022/09/25 09:32:57;;;;;;;0.90;0.50;;;23.10;81.00;;;;;;6176533;23;20015;-79
2022/09/25 09:35:29;;;;;;;0.30;0.20;;;23.10;79.50;;;;;;6244727;23;20019;-79
2022/09/25 09:37:55;;;;;;;0.80;0.57;;;23.30;79.60;;;;;;6244758;23;20078;-79
2022/09/25 09:40:24;;;;;;;0.40;0.40;;;23.40;79.40;;;;;;6243957;23;20006;-79
2022/09/25 09:43:37;;;;;;;0.38;0.38;;;23.60;79.20;;;;;;6244175;23;19996;-79
2022/09/25 09:46:14;;;;;;;0.45;0.45;;;23.60;78.20;;;;;;6245097;23;20431;-79
2022/09/25 09:48:48;;;;;;;0.65;0.50;;;23.70;78.20;;;;;;6243457;23;20004;-79
2022/09/25 09:51:34;;;;;;;0.52;0.40;;;23.70;77.90;;;;;;6244401;23;20000;-80
2022/09/25 09:54:09;;;;;;;0.47;0.30;;;23.60;77.40;;;;;;6217086;23;20004;-80
2022/09/25 09:56:35;;;;;;;0.40;0.40;;;23.60;77.80;;;;;;6244760;23;19996;-79
2022/09/25 09:59:28;;;;;;;0.40;0.40;;;23.60;77.60;;;;;;6244416;23;20706;-79
2022/09/25 10:02:04;;;;;;;0.45;0.45;;;23.60;77.20;;;;;;6244977;23;20035;-79
2022/09/25 10:04:38;;;;;;;0.60;0.50;;;23.50;77.80;;;;;;6245155;23;20012;-79
2022/09/25 10:07:17;;;;;;;0.43;0.40;;;23.50;78.40;;;;;;6244217;23;20039;-78
2022/09/25 10:09:43;;;;;;;1.15;0.52;;;23.50;78.90;;;;;;6244475;23;20004;-80
2022/09/25 10:12:20;;;;;;;1.92;0.60;;;23.50;79.20;;;;;;6244261;23;20004;-80
2022/09/25 10:14:47;;;;;;;0.60;0.50;;;23.50;79.20;;;;;;6243510;23;20027;-80
2022/09/25 10:17:14;;;;;;;0.70;0.65;;;23.60;79.40;;;;;;6243604;23;20004;-81
2022/09/25 10:20:02;;;;;;;1.20;0.68;;;23.60;79.80;;;;;;6242658;23;20075;-80
2022/09/25 10:22:41;;;;;;;1.50;0.60;;;23.80;79.50;;;;;;6242798;23;20000;-80
2022/09/25 10:25:07;;;;;;;0.65;0.65;;;23.80;79.20;;;;;;6243185;23;20004;-82
2022/09/25 10:27:34;;;;;;;1.50;0.70;;;24.00;79.10;;;;;;6244168;23;20051;-78
2022/09/25 10:30:06;;;;;;;1.15;0.80;;;24.10;78.60;;;;;;6215604;23;20473;-81
2022/09/25 10:32:34;;;;;;;1.08;0.50;;;24.10;77.60;;;;;;6244032;23;19996;-78
2022/09/25 10:35:00;;;;;;;0.65;0.50;;;24.20;77.60;;;;;;6244267;23;20000;-78
2022/09/25 10:37:33;;;;;;;2.08;0.60;;;24.20;77.60;;;;;;6244181;23;20004;-79
2022/09/25 10:40:03;;;;;;;1.05;0.55;;;24.30;77.70;;;;;;6244186;23;20000;-83
2022/09/25 10:42:40;;;;;;;0.50;0.50;;;24.30;77.30;;;;;;6244578;23;20051;-77
2022/09/25 10:45:29;;;;;;;0.88;0.60;;;24.20;77.30;;;;;;6244749;23;20007;-78
2022/09/25 10:50:39;;;;;;;1.85;0.55;;;24.20;77.10;;;;;;6243881;23;20023;-83
2022/09/25 10:53:06;;;;;;;1.27;0.70;;;24.30;77.20;;;;;;6243972;23;20342;-77
2022/09/25 10:55:42;;;;;;;1.20;0.80;;;24.40;77.20;;;;;;6243645;23;20081;-83
2022/09/25 10:58:11;;;;;;;0.73;0.50;;;24.60;77.10;;;;;;6216837;23;20732;-77
2022/09/25 11:00:46;;;;;;;1.40;0.90;;;24.60;76.80;;;;;;6244775;23;20004;-83
2022/09/25 11:03:33;;;;;;;3.50;1.10;;;24.80;76.60;;;;;;6244234;23;20007;-83
2022/09/25 11:06:19;;;;;;;4.70;1.27;;;24.80;76.20;;;;;;6217766;23;20030;-83
2022/09/25 11:08:48;;;;;;;1.90;0.90;;;24.90;76.00;;;;;;6217770;23;20009;-83
2022/09/25 11:11:20;;;;;;;0.95;0.68;;;24.80;75.60;;;;;;6245041;23;20000;-83
2022/09/25 11:13:50;;;;;;;1.45;0.73;;;24.80;75.90;;;;;;6244162;23;19996;-83
2022/09/25 11:16:16;;;;;;;2.50;1.20;;;24.70;75.90;;;;;;6243785;23;20018;-83
2022/09/25 11:18:44;;;;;;;4.75;0.85;;;24.70;76.30;;;;;;6245430;23;20004;-83
2022/09/25 11:21:58;;;;;;;0.63;0.57;;;24.60;75.90;;;;;;6246638;23;20016;-77
2022/09/25 11:24:27;;;;;;;2.42;0.90;;;24.50;75.70;;;;;;6246219;23;20419;-78
2022/09/25 11:27:10;;;;;;;2.80;0.95;;;24.60;76.50;;;;;;6246067;23;20012;-78
2022/09/25 11:30:00;;;;;;;1.13;0.75;;;24.60;76.10;;;;;;6243295;23;20000;-78
2022/09/25 11:32:35;;;;;;;0.75;0.57;;;24.60;76.00;;;;;;6241398;23;19996;-77
2022/09/25 11:35:19;;;;;;;2.20;0.47;;;24.60;75.90;;;;;;6242232;23;20027;-78
2022/09/25 11:37:58;;;;;;;0.47;0.45;;;24.70;75.60;;;;;;6241827;23;20422;-79
2022/09/25 11:43:49;;;;;;;1.27;0.57;;;24.60;75.40;;;;;;6241368;23;20086;-79
2022/09/25 11:46:42;;;;;;;2.40;0.55;;;24.50;75.20;;;;;;6241702;23;20010;-80
2022/09/25 11:49:25;;;;;;;1.25;0.50;;;24.40;75.10;;;;;;6241760;23;20016;-82
2022/09/25 11:52:18;;;;;;;0.30;0.30;;;24.40;75.30;;;;;;6242379;23;20031;-82
2022/09/25 11:54:47;;;;;;;0.40;0.30;;;24.30;75.10;;;;;;6241450;23;20004;-80
2022/09/25 11:57:38;;;;;;;0.60;0.40;;;24.30;75.40;;;;;;6215385;23;20012;-80
2022/09/25 12:00:14;;;;;;;1.23;0.60;;;24.30;75.90;;;;;;6238891;23;20334;-77
2022/09/25 12:02:52;;;;;;;0.80;0.40;;;24.40;75.50;;;;;;6241786;23;20423;-78
2022/09/25 12:05:30;;;;;;;1.23;0.40;;;24.40;74.80;;;;;;6241602;23;20016;-78
2022/09/25 12:08:14;;;;;;;1.25;0.50;;;24.30;74.90;;;;;;6214702;23;20803;-78
2022/09/25 12:11:10;;;;;;;0.45;0.40;;;24.40;75.20;;;;;;6214205;23;20008;-77
2022/09/25 12:13:39;;;;;;;0.50;0.50;;;24.40;74.60;;;;;;6243122;23;19996;-80
2022/09/25 12:16:31;;;;;;;0.57;0.57;;;24.60;74.40;;;;;;6215643;23;20004;-81
2022/09/25 12:19:12;;;;;;;3.55;0.75;;;24.70;74.00;;;;;;6242181;23;20000;-81
2022/09/25 12:21:53;;;;;;;0.95;0.45;;;24.70;73.70;;;;;;6234266;23;20011;-82
2022/09/25 12:24:38;;;;;;;1.00;0.70;;;24.70;73.60;;;;;;6241675;23;20000;-78
2022/09/25 12:27:40;;;;;;;0.57;0.40;;;24.60;73.40;;;;;;6241663;23;20322;-78
2022/09/25 12:30:29;;;;;;;0.40;0.35;;;24.50;74.00;;;;;;6241256;23;20395;-78
2022/09/25 12:33:17;;;;;;;0.73;0.40;;;24.40;74.30;;;;;;6241637;23;20000;-78
2022/09/25 12:35:57;;;;;;;0.77;0.70;;;24.40;74.60;;;;;;6241698;23;19996;-78
2022/09/25 12:38:37;;;;;;;0.98;0.47;;;24.40;74.50;;;;;;6242357;23;20015;-79
2022/09/25 12:41:25;;;;;;;0.50;0.40;;;24.70;73.90;;;;;;6241230;23;20122;-79
2022/09/25 12:44:11;;;;;;;0.80;0.45;;;24.90;72.90;;;;;;6242131;23;20496;-78
2022/09/25 12:47:12;;;;;;;0.50;0.50;;;25.10;72.40;;;;;;6214822;23;20012;-78
2022/09/25 12:49:46;;;;;;;2.15;0.40;;;25.30;71.60;;;;;;6241225;23;20091;-80
2022/09/25 12:52:19;;;;;;;3.05;0.70;;;25.40;71.80;;;;;;6240098;23;20095;-79
2022/09/25 12:55:04;;;;;;;0.65;0.43;;;25.50;71.30;;;;;;6241578;23;20501;-79
2022/09/25 12:57:46;;;;;;;0.70;0.40;;;25.70;70.60;;;;;;6242346;23;20007;-79
2022/09/25 13:00:21;;;;;;;0.65;0.35;;;25.60;70.40;;;;;;6240212;23;20030;-80
2022/09/25 13:03:11;;;;;;;0.40;0.30;;;25.50;70.60;;;;;;6241023;23;20004;-80
2022/09/25 13:05:44;;;;;;;1.25;0.40;;;25.40;70.70;;;;;;6241078;23;20019;-79
2022/09/25 13:08:37;;;;;;;0.63;0.55;;;25.20;70.50;;;;;;6241487;23;20008;-79
2022/09/25 13:11:09;;;;;;;0.40;0.40;;;25.10;70.90;;;;;;6241318;23;20031;-79
2022/09/25 13:13:44;;;;;;;0.40;0.40;;;24.90;71.30;;;;;;6241243;23;20011;-80
2022/09/25 13:16:13;;;;;;;0.35;0.30;;;24.70;71.60;;;;;;6241070;23;20007;-80
2022/09/25 13:19:08;;;;;;;1.70;0.50;;;24.50;72.10;;;;;;6241436;23;20004;-84
2022/09/25 13:21:44;;;;;;;0.30;0.30;;;24.40;72.40;;;;;;6241760;23;20474;-84
2022/09/25 13:24:14;;;;;;;0.30;0.30;;;24.30;73.00;;;;;;6242061;23;20522;-84
2022/09/25 13:26:51;;;;;;;;;;;24.20;73.40;;;;;;6243060;23;20007;-83
2022/09/25 13:29:28;;;;;;;1.00;0.40;;;24.10;72.90;;;;;;6241534;23;19943;-83
2022/09/25 13:32:17;;;;;;;0.45;0.32;;;24.00;73.10;;;;;;6242602;23;20000;-84
2022/09/25 13:34:44;;;;;;;0.60;0.57;;;24.00;73.90;;;;;;6244836;23;20331;-83
2022/09/25 13:37:12;;;;;;;1.88;0.90;;;24.00;74.00;;;;;;6243403;23;20424;-83
2022/09/25 13:42:45;;;;;;;1.50;0.85;;;23.80;74.00;;;;;;6245142;23;20034;-84